Morrisvale, West Virginia
Current Conditions -  °F | °C
As of 10:54 PM on Sunday 23 Nov 2014 (Local Time) from KCRW Reporting Station
Scattered Clouds Scattered Clouds  
Wind Chill: 62°   Ceiling: Unl
Heat Index: 62°   Visibility: 10mi
Dew Point: 51°   Wind: 18mph
Humidity: 67%   Direction: 170°S
Pressure: 29.49"   Gusts: 26mph
Location:  38.0907°N, 81.9877°W
Report Text: KCRW 240354Z 17016G23KT 10SM SCT110 SCT240 17/11 A2949 RMK AO2 PK WND 14035/0301 RAB39E48 SLP983 P0000 T01670106
Loading
Personal Weather Stations






























Interactive Weather Map New forecast layout! Learn more

10-Day Weather Forecast

Advertisements
Track Severe Weather on mobile